Airfield :
LOGIN :

Register | Disclaimer

   EN    FR    IT 

 










Legend :    VFR   Marginal VFR   IFR   Intensive IFR   Very Intensive IFR
Visi :
Ceiling :
>= 8 km
>= 3000ft
5 to 8 km
1000 to 3000 ft
1500m to 5 km
500 to 1000 ft
800 to 1500m
200 to 500 ft
< 800m
< 200 ft
Symbols :   Thunderstorms  Fog  Heavy snow  Heavy precipitations  Wind > 20 kt
SIGMETs :     Misc.  Thunderstorms  Icing  Turbulence  Mountain Waves  Volcanic Ashes






- Airport Elevation : 52 ft
- IATA code : RNN


EKRN - Bornholm Ronne

CURRENT METAR :
  • 261350Z AUTO 24012KT 9999 // OVC008/// 04/03 Q1016

EXPIRED METARs :
  • 261320Z AUTO 24012KT 9999 // OVC008/// 04/03 Q1016
  • 261250Z AUTO 24013KT 9999 // OVC008/// 04/03 Q1016
  • 261220Z AUTO 24014KT 9999 // OVC008/// 04/03 Q1016
  • 261150Z AUTO 24014KT 9999 // OVC008/// 04/03 Q1016
  • 261120Z 24013KT 9999 FEW005 BKN008 04/03 Q1016

TAF TAF EKRN
Valid from the 26 at 12:00 until the 26 at 21:00 UTC


261124Z 2612/2621 24012KT 8000 OVC005
TEMPO 2612/2621 3000 -RADZ BR BKN012



MET'MAP, your aeronautical weather chart ! - Copyright ORBIFLY December 2007 - Disclaimer

ORBIFLY MET'MAP TEAM :

Programming & Development : Alexandra Zaïnal
Concept & original design : Baudouin d'Aumeries
Assistance for programming : Marc-Olivier Méhu
Technical & hardware support : Manuel Goepfert

Contact : metmap@orbifly.com




SOURCES & CREDITS :

   NOAA